Time;durP1;ratioP1;P1;durP2;ratioP2;P2;SDS_P1;SDS_P2;PMS_P1;PMS_P2;Temp;Humidity;BMP_temperature;BMP_pressure;BME280_temperature;BME280_humidity;BME280_pressure;Samples;Min_cycle;Max_cycle;Signal;HPM_P1;HPM_P2
2022/07/27 00:02:02;;;;;;;4.05;1.10;;;;;;;19.81;65.31;96550.06;5045430;28;20210;-52
2022/07/27 00:04:29;;;;;;;2.00;1.00;;;;;;;19.82;65.66;96557.09;5045478;28;20211;-53
2022/07/27 00:06:55;;;;;;;1.17;1.05;;;;;;;19.76;65.23;96551.72;5044471;28;20313;-54
2022/07/27 00:09:22;;;;;;;1.42;1.30;;;;;;;19.75;64.11;96550.88;5045303;28;20249;-52
2022/07/27 00:11:49;;;;;;;1.77;1.35;;;;;;;19.69;64.56;96557.06;5045637;28;20306;-51
2022/07/27 00:14:17;;;;;;;2.17;1.35;;;;;;;19.70;64.27;96553.34;5044584;28;20208;-53
2022/07/27 00:16:43;;;;;;;1.40;1.30;;;;;;;19.68;63.06;96552.72;5044592;28;20212;-51
2022/07/27 00:19:10;;;;;;;1.60;1.40;;;;;;;19.53;66.24;96549.38;5045217;28;20211;-52
2022/07/27 00:21:37;;;;;;;1.20;1.20;;;;;;;19.48;67.26;96541.13;5044873;28;20227;-52
2022/07/27 00:24:03;;;;;;;2.33;1.30;;;;;;;19.53;64.81;96535.13;5045400;28;20211;-52
2022/07/27 00:26:30;;;;;;;2.17;1.10;;;;;;;19.46;64.26;96524.38;5045840;28;20212;-54
2022/07/27 00:28:57;;;;;;;1.70;1.60;;;;;;;19.45;64.40;96532.63;5046796;28;20224;-52
2022/07/27 00:31:24;;;;;;;1.40;1.30;;;;;;;19.37;65.56;96525.56;5044821;28;20204;-52
2022/07/27 00:33:51;;;;;;;1.30;1.15;;;;;;;19.35;64.84;96525.75;5044508;28;20214;-53
2022/07/27 00:36:18;;;;;;;1.48;1.10;;;;;;;19.21;65.29;96521.34;5044729;28;20245;-51
2022/07/27 00:38:44;;;;;;;1.85;0.90;;;;;;;19.17;65.74;96524.63;5045861;28;20215;-54
2022/07/27 00:41:11;;;;;;;1.98;1.35;;;;;;;19.18;64.80;96526.28;5044292;28;20266;-51
2022/07/27 00:43:54;;;;;;;1.40;1.30;;;;;;;19.15;66.81;96515.97;5044105;28;20236;-51
2022/07/27 00:46:21;;;;;;;3.90;1.38;;;;;;;19.13;64.66;96520.72;5043413;28;20330;-52
2022/07/27 00:48:49;;;;;;;2.75;1.40;;;;;;;19.03;66.08;96518.38;5045019;28;20358;-52
2022/07/27 00:51:18;;;;;;;1.35;1.23;;;;;;;19.08;65.60;96515.13;5043856;28;20213;-53
2022/07/27 00:53:45;;;;;;;0.93;0.93;;;;;;;19.05;65.25;96512.84;5044074;28;20207;-51
2022/07/27 00:56:12;;;;;;;3.00;1.35;;;;;;;19.02;67.27;96505.19;5044746;28;20276;-51
2022/07/27 00:58:38;;;;;;;1.02;1.02;;;;;;;18.90;67.50;96502.25;5044357;28;20202;-52
2022/07/27 01:01:06;;;;;;;1.33;1.17;;;;;;;18.98;65.70;96506.63;5044050;28;20207;-53
2022/07/27 01:03:32;;;;;;;1.05;1.05;;;;;;;18.98;65.83;96496.72;5043922;28;20231;-51
2022/07/27 01:06:01;;;;;;;1.15;1.13;;;;;;;19.04;65.21;96503.13;5044100;28;20208;-53
2022/07/27 01:08:27;;;;;;;1.38;1.15;;;;;;;19.04;64.19;96500.44;5044113;28;20258;-53
2022/07/27 01:10:55;;;;;;;1.48;0.88;;;;;;;18.93;65.31;96501.00;5044124;28;20212;-52
2022/07/27 01:13:22;;;;;;;1.25;1.02;;;;;;;18.89;67.18;96493.38;5044725;28;20210;-52
2022/07/27 01:15:49;;;;;;;1.65;1.10;;;;;;;18.88;66.13;96488.22;5044040;28;20227;-53
2022/07/27 01:18:27;;;;;;;0.80;0.80;;;;;;;18.86;65.85;96485.72;5044446;28;20210;-51
2022/07/27 01:20:54;;;;;;;2.90;1.15;;;;;;;18.75;67.60;96488.97;5044178;28;20204;-50
2022/07/27 01:23:22;;;;;;;1.05;1.05;;;;;;;18.80;66.61;96489.22;5043208;28;20297;-52
2022/07/27 01:25:55;;;;;;;2.05;1.00;;;;;;;18.75;66.91;96488.13;5043586;28;20207;-53
2022/07/27 01:28:21;;;;;;;1.00;1.00;;;;;;;18.73;67.48;96491.03;5044605;28;21037;-52
2022/07/27 01:30:48;;;;;;;1.80;0.85;;;;;;;18.71;66.68;96487.69;5044640;28;20644;-52
2022/07/27 01:33:14;;;;;;;1.25;1.20;;;;;;;18.76;66.80;96487.13;5044365;28;20291;-52
2022/07/27 01:35:41;;;;;;;1.15;1.05;;;;;;;18.79;64.81;96489.41;5046204;28;20215;-52
2022/07/27 01:38:10;;;;;;;1.25;1.20;;;;;;;18.76;65.63;96487.94;5045823;28;20543;-53
2022/07/27 01:40:38;;;;;;;1.20;1.20;;;;;;;18.66;67.25;96495.53;5048621;28;20210;-52
2022/07/27 01:43:05;;;;;;;1.00;1.00;;;;;;;18.69;67.04;96495.13;5046717;28;20581;-54
2022/07/27 01:45:32;;;;;;;1.48;1.00;;;;;;;18.65;67.25;96493.03;5065666;28;20200;-52
2022/07/27 01:47:59;;;;;;;2.15;1.27;;;;;;;18.58;67.00;96493.00;5067687;28;20227;-52
2022/07/27 01:50:25;;;;;;;1.20;1.10;;;;;;;18.54;69.30;96494.41;5068921;28;20227;-53
2022/07/27 01:52:52;;;;;;;1.50;1.17;;;;;;;18.53;68.72;96499.97;5068175;28;20204;-51
2022/07/27 01:55:18;;;;;;;1.92;1.25;;;;;;;18.57;68.07;96494.00;5064332;28;20184;-52
2022/07/27 01:57:46;;;;;;;0.98;0.98;;;;;;;18.57;68.85;96491.31;5061459;28;20207;-52
2022/07/27 02:00:13;;;;;;;1.42;1.25;;;;;;;18.48;69.28;96492.47;5065080;28;20196;-53
2022/07/27 02:02:40;;;;;;;1.42;1.33;;;;;;;18.40;70.51;96490.78;5071215;28;20199;-52
2022/07/27 02:05:10;;;;;;;1.25;1.10;;;;;;;18.38;70.55;96497.34;5066103;28;20180;-52
2022/07/27 02:07:37;;;;;;;1.30;1.10;;;;;;;18.33;70.24;96492.56;5070423;28;20198;-53
2022/07/27 02:10:04;;;;;;;1.70;1.60;;;;;;;18.41;68.22;96494.28;5055251;28;20241;-52
2022/07/27 02:12:36;;;;;;;2.33;1.20;;;;;;;18.35;71.14;96492.41;5045185;28;20211;-51
2022/07/27 02:15:10;;;;;;;1.85;1.30;;;;;;;18.36;70.19;96491.34;5043879;28;20200;-52
2022/07/27 02:17:38;;;;;;;1.10;1.10;;;;;;;18.22;71.14;96489.59;5043113;28;20207;-53
2022/07/27 02:20:06;;;;;;;2.90;1.30;;;;;;;18.28;70.26;96495.00;5043180;28;20285;-53
2022/07/27 02:22:33;;;;;;;1.83;1.17;;;;;;;18.18;71.96;96501.72;5042260;28;20242;-52
2022/07/27 02:25:00;;;;;;;2.70;1.55;;;;;;;18.12;71.57;96497.13;5042856;28;20241;-52
2022/07/27 02:27:27;;;;;;;1.95;1.40;;;;;;;18.09;72.95;96493.00;5043806;28;20640;-53
2022/07/27 02:29:53;;;;;;;2.65;1.60;;;;;;;18.17;70.68;96484.03;5043118;28;20254;-52
2022/07/27 02:32:22;;;;;;;1.50;1.40;;;;;;;18.10;72.16;96493.84;5043376;28;20210;-53
2022/07/27 02:34:48;;;;;;;2.13;1.60;;;;;;;18.03;71.44;96487.59;5042695;28;20203;-52
2022/07/27 02:37:15;;;;;;;2.55;1.50;;;;;;;17.92;71.89;96490.81;5043180;28;20240;-53
2022/07/27 02:39:42;;;;;;;1.20;1.10;;;;;;;17.84;73.16;96479.22;5041854;28;20283;-52
2022/07/27 02:42:09;;;;;;;1.48;1.33;;;;;;;17.88;72.78;96479.66;5042799;28;20231;-51
2022/07/27 02:44:35;;;;;;;3.00;1.52;;;;;;;17.78;74.21;96485.31;5041352;28;20192;-52
2022/07/27 02:47:02;;;;;;;2.03;1.70;;;;;;;17.75;74.95;96477.66;5042937;28;20507;-52
2022/07/27 02:49:30;;;;;;;2.65;1.20;;;;;;;17.83;73.62;96476.72;5041576;28;20265;-52
2022/07/27 02:51:56;;;;;;;2.45;1.40;;;;;;;17.78;73.90;96473.81;5041805;28;20585;-54
2022/07/27 02:54:24;;;;;;;1.50;1.40;;;;;;;17.72;74.04;96472.72;5041310;28;20293;-51
2022/07/27 02:56:50;;;;;;;1.20;1.08;;;;;;;17.65;74.59;96474.50;5042113;28;20283;-53
2022/07/27 02:59:17;;;;;;;2.05;1.35;;;;;;;17.69;74.49;96459.72;5041937;28;20212;-51
2022/07/27 03:01:44;;;;;;;1.30;1.30;;;;;;;17.64;74.19;96455.97;5041764;28;20274;-52
2022/07/27 03:04:11;;;;;;;1.40;1.30;;;;;;;17.63;75.08;96465.00;5041776;28;20208;-52
2022/07/27 03:06:39;;;;;;;1.95;1.50;;;;;;;17.63;75.28;96463.16;5041643;28;20628;-52
2022/07/27 03:09:05;;;;;;;1.90;1.50;;;;;;;17.54;76.09;96466.94;5041703;28;20248;-51
2022/07/27 03:11:32;;;;;;;2.22;1.40;;;;;;;17.59;73.80;96464.56;5041630;28;20208;-52
2022/07/27 03:13:58;;;;;;;1.58;1.48;;;;;;;17.51;75.95;96467.31;5042160;28;20211;-52
2022/07/27 03:16:25;;;;;;;1.65;1.55;;;;;;;17.49;76.51;96469.38;5041601;28;20651;-51
2022/07/27 03:18:52;;;;;;;2.63;1.63;;;;;;;17.45;76.60;96462.75;5041820;28;20283;-51
2022/07/27 03:21:18;;;;;;;1.60;1.50;;;;;;;17.46;77.19;96466.25;5041054;28;20585;-53
2022/07/27 03:23:46;;;;;;;1.90;1.50;;;;;;;17.49;76.00;96464.03;5042144;28;20235;-52
2022/07/27 03:26:13;;;;;;;1.73;1.63;;;;;;;17.42;77.06;96458.63;5041853;28;20212;-52
2022/07/27 03:28:39;;;;;;;1.75;1.65;;;;;;;17.49;75.99;96469.38;5041895;28;20238;-52
2022/07/27 03:31:06;;;;;;;1.60;1.50;;;;;;;17.46;77.23;96463.56;5040948;28;20223;-53
2022/07/27 03:33:34;;;;;;;2.80;1.70;;;;;;;17.49;75.91;96474.72;5041049;28;20518;-52
2022/07/27 03:36:00;;;;;;;1.98;1.88;;;;;;;17.46;76.88;96471.59;5041567;28;20216;-52
2022/07/27 03:38:27;;;;;;;1.95;1.42;;;;;;;17.43;77.72;96468.25;5041520;28;20219;-53
2022/07/27 03:40:55;;;;;;;2.72;1.65;;;;;;;17.46;77.25;96468.94;5041801;28;20204;-52
2022/07/27 03:43:22;;;;;;;2.65;1.60;;;;;;;17.53;76.72;96470.66;5042236;28;20195;-53
2022/07/27 03:45:48;;;;;;;3.10;1.60;;;;;;;17.57;76.20;96469.25;5041540;28;20227;-52
2022/07/27 03:48:16;;;;;;;2.70;1.70;;;;;;;17.51;77.64;96475.34;5041098;28;20227;-52
2022/07/27 03:50:43;;;;;;;2.00;1.83;;;;;;;17.54;78.30;96469.59;5043115;28;20297;-52
2022/07/27 03:53:09;;;;;;;2.38;1.60;;;;;;;17.56;78.85;96472.97;5044738;28;20684;-52
2022/07/27 03:55:36;;;;;;;2.03;1.55;;;;;;;17.64;75.93;96478.16;5045211;28;20238;-51
2022/07/27 03:58:03;;;;;;;1.92;1.73;;;;;;;17.63;76.86;96475.72;5045052;28;20203;-53
2022/07/27 04:00:30;;;;;;;1.95;1.80;;;;;;;17.60;76.48;96471.56;5045028;28;20196;-53
2022/07/27 04:02:57;;;;;;;3.20;1.70;;;;;;;17.59;78.14;96480.59;5045115;28;20266;-50
2022/07/27 04:05:23;;;;;;;1.83;1.73;;;;;;;17.60;77.48;96474.25;5044798;28;20208;-51
2022/07/27 04:07:50;;;;;;;3.83;1.60;;;;;;;17.71;76.54;96479.06;5045208;28;20215;-50
2022/07/27 04:10:17;;;;;;;3.63;1.50;;;;;;;17.68;77.45;96479.44;5045035;28;20248;-51
2022/07/27 04:12:43;;;;;;;1.80;1.40;;;;;;;17.73;77.60;96474.38;5044825;28;20200;-52
2022/07/27 04:15:11;;;;;;;1.92;1.65;;;;;;;17.72;78.31;96480.72;5044738;28;20307;-53
2022/07/27 04:17:38;;;;;;;1.90;1.80;;;;;;;17.72;78.23;96478.06;5045130;28;20208;-51
2022/07/27 04:20:06;;;;;;;1.58;1.48;;;;;;;17.75;79.71;96480.34;5044226;28;20332;-51
2022/07/27 04:22:33;;;;;;;1.77;1.58;;;;;;;17.81;78.83;96476.91;5044103;28;20204;-52
2022/07/27 04:24:59;;;;;;;1.70;1.42;;;;;;;17.85;78.85;96475.50;5044361;28;20591;-51
2022/07/27 04:27:26;;;;;;;3.53;1.83;;;;;;;17.85;79.40;96470.13;5045463;28;20211;-53
2022/07/27 04:29:52;;;;;;;1.65;1.55;;;;;;;17.88;79.82;96480.50;5044358;28;20228;-51
2022/07/27 04:32:20;;;;;;;1.67;1.58;;;;;;;17.98;78.89;96487.34;5044248;28;20199;-53
2022/07/27 04:34:47;;;;;;;1.67;1.58;;;;;;;18.00;77.84;96477.25;5043668;28;20591;-52
2022/07/27 04:37:13;;;;;;;2.30;2.00;;;;;;;18.02;78.76;96477.91;5044739;28;20214;-53
2022/07/27 04:39:40;;;;;;;2.22;1.48;;;;;;;18.07;78.57;96478.16;5043565;28;20607;-52
2022/07/27 04:42:07;;;;;;;1.63;1.52;;;;;;;18.06;78.96;96479.19;5044084;28;20230;-52
2022/07/27 04:44:33;;;;;;;3.63;2.45;;;;;;;18.11;78.56;96480.25;5043659;28;20234;-52
2022/07/27 04:47:00;;;;;;;2.65;1.90;;;;;;;18.20;76.42;96479.09;5044709;28;20238;-52
2022/07/27 04:49:28;;;;;;;2.38;1.70;;;;;;;18.20;76.22;96479.09;5044115;28;20293;-53
2022/07/27 04:51:54;;;;;;;3.75;1.92;;;;;;;18.25;77.64;96476.66;5043753;28;20242;-52
2022/07/27 04:54:21;;;;;;;4.03;2.10;;;;;;;18.28;78.91;96475.47;5043563;28;20199;-51
2022/07/27 04:56:47;;;;;;;2.38;2.00;;;;;;;18.32;77.46;96482.06;5044399;28;20218;-51
2022/07/27 04:59:14;;;;;;;2.47;2.00;;;;;;;18.37;76.26;96476.94;5043331;28;20196;-52
2022/07/27 05:01:40;;;;;;;2.10;1.88;;;;;;;18.40;77.35;96479.22;5042189;28;20603;-53
2022/07/27 05:04:07;;;;;;;6.47;2.17;;;;;;;18.42;77.60;96477.22;5043419;28;20642;-52
2022/07/27 05:06:38;;;;;;;3.25;2.05;;;;;;;18.50;77.04;96489.59;5043664;28;20207;-51
2022/07/27 05:09:04;;;;;;;1.95;1.80;;;;;;;18.61;74.75;96476.53;5043092;28;20223;-51
2022/07/27 05:11:31;;;;;;;1.90;1.80;;;;;;;18.69;75.37;96483.56;5043645;28;20223;-50
2022/07/27 05:13:57;;;;;;;2.92;2.00;;;;;;;18.74;74.29;96498.03;5043224;28;20294;-51
2022/07/27 05:16:24;;;;;;;2.38;1.90;;;;;;;18.84;74.10;96487.81;5043124;28;20632;-52
2022/07/27 05:18:50;;;;;;;2.20;2.08;;;;;;;18.86;74.88;96496.44;5044292;28;20223;-52
2022/07/27 05:21:17;;;;;;;3.15;2.28;;;;;;;18.91;74.62;96503.91;5044118;28;20212;-53
2022/07/27 05:23:45;;;;;;;2.58;1.55;;;;;;;18.89;74.34;96504.09;5044196;28;20231;-51
2022/07/27 05:26:11;;;;;;;1.70;1.52;;;;;;;18.92;75.18;96507.41;5044030;28;20282;-52
2022/07/27 05:28:38;;;;;;;3.20;1.63;;;;;;;19.01;73.69;96503.53;5041904;28;20227;-51
2022/07/27 05:31:04;;;;;;;1.77;1.67;;;;;;;19.08;73.58;96507.06;5041865;28;20246;-52
2022/07/27 05:33:33;;;;;;;1.67;1.55;;;;;;;19.21;73.18;96504.44;5044111;28;20215;-55
2022/07/27 05:35:59;;;;;;;1.88;1.65;;;;;;;19.32;72.27;96504.69;5041839;28;20204;-56
2022/07/27 05:38:26;;;;;;;1.90;1.80;;;;;;;19.49;70.45;96504.38;5042378;28;20730;-54
2022/07/27 05:40:54;;;;;;;1.73;1.63;;;;;;;19.63;69.30;96504.19;5041173;28;20723;-57
2022/07/27 05:43:21;;;;;;;1.33;1.23;;;;;;;19.80;69.17;96505.47;5042930;28;20225;-56
2022/07/27 05:45:47;;;;;;;2.15;1.70;;;;;;;20.04;68.65;96511.31;5042399;28;20288;-56
2022/07/27 05:48:14;;;;;;;1.88;1.60;;;;;;;20.27;67.09;96512.56;5041798;28;20241;-54
2022/07/27 05:50:40;;;;;;;2.78;1.60;;;;;;;20.48;65.29;96516.91;5042355;28;20278;-53
2022/07/27 05:53:07;;;;;;;1.40;1.30;;;;;;;20.62;64.14;96510.47;5042481;28;20311;-53
2022/07/27 05:55:34;;;;;;;1.80;1.23;;;;;;;20.83;64.17;96512.94;5042199;28;20268;-54
2022/07/27 05:58:02;;;;;;;3.00;1.60;;;;;;;20.98;63.39;96520.75;5042863;28;20206;-54
2022/07/27 06:00:30;;;;;;;2.90;1.80;;;;;;;21.04;61.79;96513.72;5042258;28;20230;-54
2022/07/27 06:02:57;;;;;;;1.60;1.30;;;;;;;21.11;62.24;96510.03;5042437;28;20203;-53
2022/07/27 06:05:26;;;;;;;2.20;1.60;;;;;;;21.09;61.97;96516.59;5042767;28;20254;-54
2022/07/27 06:07:58;;;;;;;2.60;1.42;;;;;;;21.12;61.48;96510.81;5042785;28;20677;-54
2022/07/27 06:10:24;;;;;;;1.60;1.50;;;;;;;21.08;59.32;96517.66;5042389;28;20222;-54
2022/07/27 06:12:51;;;;;;;2.15;2.05;;;;;;;21.07;61.38;96519.50;5043206;28;20219;-52
2022/07/27 06:15:19;;;;;;;2.35;1.77;;;;;;;21.20;61.40;96518.66;5042123;28;20204;-54
2022/07/27 06:17:47;;;;;;;2.75;1.73;;;;;;;21.64;60.62;96520.56;5042252;28;20639;-51
2022/07/27 06:20:14;;;;;;;2.22;1.80;;;;;;;22.04;58.15;96519.28;5043904;28;20230;-54
2022/07/27 06:22:45;;;;;;;4.70;1.70;;;;;;;22.10;55.68;96514.91;5043401;28;20287;-52
2022/07/27 06:25:12;;;;;;;2.28;2.00;;;;;;;22.39;57.19;96514.25;5042290;28;20286;-53
2022/07/27 06:27:38;;;;;;;3.80;3.08;;;;;;;22.37;57.04;96510.13;5042288;28;20660;-52
2022/07/27 06:30:06;;;;;;;2.25;1.60;;;;;;;22.55;56.38;96508.31;5041412;28;20286;-52
2022/07/27 06:32:34;;;;;;;1.98;1.83;;;;;;;22.62;54.97;96516.34;5041774;28;20207;-53
2022/07/27 06:35:01;;;;;;;3.13;1.65;;;;;;;22.65;55.88;96519.41;5041917;28;20290;-53
2022/07/27 06:37:28;;;;;;;1.92;1.63;;;;;;;23.03;54.31;96515.75;5042700;28;20211;-53
2022/07/27 06:39:55;;;;;;;3.97;1.77;;;;;;;23.24;52.44;96518.00;5041434;28;20338;-53
2022/07/27 06:42:22;;;;;;;2.50;1.67;;;;;;;23.35;51.32;96519.94;5041614;28;20214;-53
2022/07/27 06:44:48;;;;;;;2.03;1.52;;;;;;;23.55;51.51;96520.59;5042677;28;20211;-52
2022/07/27 06:47:15;;;;;;;2.70;2.13;;;;;;;23.72;50.57;96516.19;5043456;28;20604;-53
2022/07/27 06:49:43;;;;;;;4.03;1.45;;;;;;;24.08;51.67;96522.56;5044130;28;20230;-52
2022/07/27 06:52:10;;;;;;;3.22;1.85;;;;;;;23.96;51.32;96522.50;5043912;28;20250;-52
2022/07/27 06:54:37;;;;;;;2.08;1.50;;;;;;;24.37;49.96;96520.91;5042813;28;20215;-53
2022/07/27 06:57:04;;;;;;;1.95;1.60;;;;;;;24.51;49.34;96515.03;5041617;28;20204;-51
2022/07/27 06:59:32;;;;;;;1.92;1.40;;;;;;;24.90;47.76;96512.72;5042887;28;20874;-53
2022/07/27 07:01:59;;;;;;;2.60;1.83;;;;;;;24.43;48.48;96518.09;5046722;28;20195;-54
2022/07/27 07:04:25;;;;;;;1.83;1.40;;;;;;;24.76;47.37;96522.94;5051559;28;20215;-54
2022/07/27 07:06:53;;;;;;;1.45;1.25;;;;;;;25.06;46.63;96523.66;5048243;28;20227;-54
2022/07/27 07:09:20;;;;;;;2.13;1.90;;;;;;;25.32;47.69;96529.63;5043977;28;20208;-53
2022/07/27 07:11:47;;;;;;;2.30;1.73;;;;;;;25.35;46.13;96524.56;5042550;28;20230;-54
2022/07/27 07:14:14;;;;;;;1.50;1.40;;;;;;;25.33;45.92;96529.38;5041894;28;20207;-54
2022/07/27 07:16:40;;;;;;;2.25;1.80;;;;;;;25.21;46.11;96529.41;5041173;28;20231;-53
2022/07/27 07:19:07;;;;;;;3.78;1.70;;;;;;;25.39;45.71;96528.44;5042476;28;20211;-52
2022/07/27 07:21:34;;;;;;;2.55;1.67;;;;;;;25.25;47.12;96533.28;5042547;28;20690;-53
2022/07/27 07:24:02;;;;;;;2.25;1.83;;;;;;;25.62;48.57;96527.56;5042024;28;20900;-52
2022/07/27 07:26:28;;;;;;;2.65;1.75;;;;;;;25.74;47.75;96523.78;5044542;28;20199;-54
2022/07/27 07:28:55;;;;;;;3.95;1.77;;;;;;;25.93;44.98;96529.00;5044650;28;20225;-53
2022/07/27 07:31:21;;;;;;;6.68;2.08;;;;;;;25.66;45.06;96526.84;5045375;28;20231;-52
2022/07/27 07:33:48;;;;;;;2.22;1.85;;;;;;;25.66;45.48;96531.44;5045533;28;20242;-52
2022/07/27 07:36:14;;;;;;;2.10;1.90;;;;;;;26.08;46.56;96526.56;5044483;28;20344;-54
2022/07/27 07:38:41;;;;;;;2.45;1.42;;;;;;;26.36;45.48;96523.84;5045177;28;20199;-55
2022/07/27 07:41:09;;;;;;;2.67;1.80;;;;;;;26.42;43.38;96528.31;5044235;28;20191;-53
2022/07/27 07:43:37;;;;;;;3.45;1.52;;;;;;;26.09;45.69;96518.19;5046036;28;20231;-54
2022/07/27 07:46:04;;;;;;;2.88;1.73;;;;;;;25.67;43.44;96528.50;5045055;28;20538;-53
2022/07/27 07:48:30;;;;;;;2.97;1.60;;;;;;;25.60;43.94;96521.59;5044847;28;20246;-53
2022/07/27 07:50:57;;;;;;;1.90;1.73;;;;;;;25.03;45.04;96526.00;5046571;28;20231;-53
2022/07/27 07:53:24;;;;;;;3.00;1.80;;;;;;;24.91;47.06;96525.19;5046803;28;20220;-53
2022/07/27 07:55:51;;;;;;;2.38;1.50;;;;;;;24.93;47.43;96517.66;5045203;28;20246;-53
2022/07/27 07:58:20;;;;;;;5.65;2.20;;;;;;;24.85;47.60;96531.53;5044571;28;20207;-53
2022/07/27 08:00:46;;;;;;;3.65;1.80;;;;;;;24.90;49.89;96524.38;5044403;28;20204;-53
2022/07/27 08:03:13;;;;;;;4.05;1.67;;;;;;;24.88;46.76;96526.47;5045654;28;20218;-52
2022/07/27 08:05:40;;;;;;;1.52;1.27;;;;;;;25.08;47.15;96515.31;5044947;28;20203;-54
2022/07/27 08:08:06;;;;;;;2.13;1.90;;;;;;;25.10;47.76;96521.28;5044792;28;20203;-54
2022/07/27 08:10:33;;;;;;;1.95;1.65;;;;;;;25.33;48.45;96515.84;5044481;28;20223;-53
2022/07/27 08:13:00;;;;;;;2.22;1.60;;;;;;;25.34;48.93;96516.66;5045333;28;20207;-54
2022/07/27 08:15:29;;;;;;;1.90;1.80;;;;;;;25.45;48.75;96519.34;5044041;28;20204;-53
2022/07/27 08:17:55;;;;;;;1.92;1.80;;;;;;;25.67;48.14;96514.97;5045197;28;20211;-53
2022/07/27 08:20:24;;;;;;;1.80;1.48;;;;;;;25.71;48.41;96521.56;5044036;28;20226;-53
2022/07/27 08:22:50;;;;;;;2.03;1.40;;;;;;;25.35;44.78;96511.03;5044242;28;20216;-54
2022/07/27 08:25:17;;;;;;;2.97;1.65;;;;;;;25.34;47.56;96513.97;5044134;28;20211;-54
2022/07/27 08:27:44;;;;;;;2.60;1.90;;;;;;;25.53;46.52;96515.47;5045863;28;20514;-54
2022/07/27 08:30:11;;;;;;;2.33;1.70;;;;;;;25.87;45.20;96519.13;5044578;28;20235;-53
2022/07/27 08:32:50;;;;;;;2.55;1.80;;;;;;;25.80;45.08;96523.84;5044230;28;20321;-54
2022/07/27 08:35:17;;;;;;;1.63;1.27;;;;;;;25.98;46.99;96520.97;5047246;28;20257;-52
2022/07/27 08:37:44;;;;;;;2.20;2.00;;;;;;;26.47;45.16;96519.41;5045040;28;20208;-53
2022/07/27 08:40:11;;;;;;;2.97;1.65;;;;;;;26.76;45.20;96510.13;5044504;28;20218;-52
2022/07/27 08:42:40;;;;;;;2.58;1.77;;;;;;;26.67;44.33;96520.59;5043291;28;20703;-52
2022/07/27 08:45:08;;;;;;;4.07;1.73;;;;;;;26.96;45.18;96517.81;5042870;28;20218;-54
2022/07/27 08:47:35;;;;;;;1.75;1.48;;;;;;;26.84;41.17;96514.34;5044034;28;20321;-51
2022/07/27 08:50:04;;;;;;;2.33;1.38;;;;;;;26.39;42.71;96517.13;5043765;28;20200;-53
2022/07/27 08:52:30;;;;;;;1.70;1.60;;;;;;;26.71;43.63;96519.00;5043181;28;20292;-53
2022/07/27 08:54:57;;;;;;;2.95;1.88;;;;;;;26.64;42.51;96517.56;5044739;28;20234;-51
2022/07/27 08:57:23;;;;;;;1.80;1.60;;;;;;;26.94;43.95;96509.91;5043523;28;20251;-53
2022/07/27 08:59:50;;;;;;;1.90;1.77;;;;;;;26.51;42.34;96515.16;5044092;28;20219;-53
2022/07/27 09:02:20;;;;;;;1.70;1.58;;;;;;;26.41;44.20;96518.53;5044430;28;20228;-54
2022/07/27 09:04:46;;;;;;;4.50;2.20;;;;;;;26.55;45.26;96510.88;5044395;28;20211;-54
2022/07/27 09:07:27;;;;;;;2.00;1.80;;;;;;;26.48;45.61;96516.47;5043610;28;20210;-54
2022/07/27 09:09:53;;;;;;;3.15;1.80;;;;;;;26.44;42.71;96511.78;5044329;28;20227;-54
2022/07/27 09:12:27;;;;;;;2.58;1.55;;;;;;;26.61;44.82;96508.00;5044297;28;20621;-52
2022/07/27 09:15:04;;;;;;;2.03;1.83;;;;;;;26.86;45.43;96498.63;5044186;28;20228;-52
2022/07/27 09:17:30;;;;;;;1.67;1.52;;;;;;;26.69;43.76;96507.59;5045360;28;20266;-53
2022/07/27 09:19:58;;;;;;;1.77;1.67;;;;;;;27.07;42.73;96497.84;5048411;28;20262;-53
2022/07/27 09:22:46;;;;;;;1.70;1.58;;;;;;;26.62;43.03;96501.50;5045594;28;20191;-53
2022/07/27 09:25:14;;;;;;;3.47;1.75;;;;;;;26.59;45.49;96499.28;5044057;28;20252;-53
2022/07/27 09:27:42;;;;;;;1.77;1.65;;;;;;;26.87;42.87;96501.09;5045068;28;20751;-52
2022/07/27 09:30:10;;;;;;;1.90;1.80;;;;;;;26.75;44.80;96499.53;5043203;28;20546;-53
2022/07/27 09:32:38;;;;;;;3.00;1.60;;;;;;;27.16;44.96;96499.09;5043766;28;20219;-52
2022/07/27 09:35:15;;;;;;;3.85;1.70;;;;;;;27.46;43.13;96499.50;5043371;28;20268;-52
2022/07/27 09:37:42;;;;;;;2.20;1.90;;;;;;;27.30;40.58;96500.34;5043878;28;20214;-53
2022/07/27 09:40:15;;;;;;;1.80;1.67;;;;;;;27.24;43.20;96504.09;5043595;28;20641;-53
2022/07/27 09:42:42;;;;;;;1.92;1.45;;;;;;;27.15;43.29;96503.69;5043598;28;20313;-52
2022/07/27 09:45:30;;;;;;;3.47;1.80;;;;;;;26.44;44.42;96501.75;5044719;28;20199;-52
2022/07/27 09:48:10;;;;;;;2.03;1.83;;;;;;;26.22;45.52;96495.41;5039728;28;20259;-53
2022/07/27 09:50:40;;;;;;;4.15;1.98;;;;;;;26.16;43.81;96501.78;5044413;28;20281;-53
2022/07/27 09:53:21;;;;;;;3.85;1.63;;;;;;;26.12;43.35;96506.88;5044594;28;20231;-52
2022/07/27 09:55:58;;;;;;;1.85;1.75;;;;;;;26.14;42.47;96509.34;5044283;28;20198;-51
2022/07/27 09:58:45;;;;;;;2.75;2.50;;;;;;;26.22;42.93;96495.41;5043916;28;20578;-52
2022/07/27 10:01:13;;;;;;;1.92;1.73;;;;;;;26.42;43.29;96501.19;5046242;28;20213;-53
2022/07/27 10:03:41;;;;;;;3.97;2.13;;;;;;;26.57;42.44;96497.91;5062671;28;20214;-56
2022/07/27 10:06:08;;;;;;;3.30;1.83;;;;;;;26.47;42.84;96506.69;5066655;28;20188;-55
2022/07/27 10:08:36;;;;;;;1.67;1.55;;;;;;;26.53;41.60;96504.91;5065926;28;20210;-55
2022/07/27 10:11:04;;;;;;;2.80;1.90;;;;;;;26.10;42.88;96494.63;5062380;28;20195;-54
2022/07/27 10:13:32;;;;;;;1.85;1.70;;;;;;;26.42;42.82;96497.66;5060589;28;20203;-57
2022/07/27 10:16:00;;;;;;;3.45;1.70;;;;;;;26.43;42.44;96496.59;5063840;28;20225;-55
2022/07/27 10:18:37;;;;;;;2.00;1.80;;;;;;;26.59;44.00;96491.16;5059596;28;20223;-56
2022/07/27 10:21:07;;;;;;;1.80;1.70;;;;;;;26.81;45.66;96493.94;5065987;28;20206;-56
2022/07/27 10:23:36;;;;;;;1.85;1.75;;;;;;;26.92;42.45;96494.94;5065527;28;20187;-55
2022/07/27 10:26:21;;;;;;;4.07;1.98;;;;;;;27.06;44.53;96494.34;5049064;28;20196;-56
2022/07/27 10:28:52;;;;;;;1.95;1.70;;;;;;;27.20;41.72;96481.22;5043856;28;20223;-53
2022/07/27 10:31:21;;;;;;;2.85;2.10;;;;;;;27.23;41.28;96486.16;5042575;28;20615;-55
2022/07/27 10:33:49;;;;;;;2.80;1.92;;;;;;;27.33;40.94;96491.69;5041984;28;20640;-55
2022/07/27 10:36:16;;;;;;;1.92;1.75;;;;;;;27.38;41.22;96493.66;5041870;28;20280;-56
2022/07/27 10:38:48;;;;;;;2.97;1.70;;;;;;;27.32;41.79;96494.66;5042054;28;20625;-55
2022/07/27 10:41:23;;;;;;;3.08;1.90;;;;;;;27.33;41.61;96486.28;5042286;28;20812;-55
2022/07/27 10:43:50;;;;;;;1.92;1.70;;;;;;;27.67;41.41;96490.50;5042088;28;20203;-55
2022/07/27 10:46:21;;;;;;;2.72;1.70;;;;;;;28.23;42.86;96484.88;5042738;28;20203;-55
2022/07/27 10:48:47;;;;;;;4.05;2.08;;;;;;;28.65;40.67;96483.88;5042510;28;20257;-55
2022/07/27 10:51:15;;;;;;;4.22;2.25;;;;;;;29.03;40.46;96477.34;5042464;28;20199;-56
2022/07/27 10:53:43;;;;;;;2.65;2.42;;;;;;;29.29;38.92;96478.34;5041559;28;20628;-56
2022/07/27 10:56:10;;;;;;;2.63;1.60;;;;;;;29.53;39.71;96476.81;5041760;28;20260;-55
2022/07/27 10:58:51;;;;;;;3.83;1.90;;;;;;;29.55;38.42;96482.81;5043283;28;20203;-55
2022/07/27 11:01:19;;;;;;;2.97;1.67;;;;;;;29.21;37.70;96486.16;5046369;28;20264;-56
2022/07/27 11:03:51;;;;;;;1.88;1.77;;;;;;;28.88;37.48;96485.41;5045991;28;20211;-56
2022/07/27 11:06:35;;;;;;;3.03;1.90;;;;;;;29.04;36.62;96478.19;5046142;28;20200;-55
2022/07/27 11:09:02;;;;;;;1.92;1.60;;;;;;;28.47;37.75;96484.28;5046424;28;20211;-57
2022/07/27 11:11:33;;;;;;;2.90;2.45;;;;;;;28.89;38.17;96480.81;5045171;28;20269;-56
2022/07/27 11:14:01;;;;;;;5.47;2.33;;;;;;;28.71;41.20;96476.59;5046026;28;20247;-55
2022/07/27 11:16:29;;;;;;;2.95;1.90;;;;;;;28.71;40.11;96478.50;5046161;28;20207;-54
2022/07/27 11:19:02;;;;;;;3.78;1.70;;;;;;;28.53;41.87;96471.53;5046149;28;20222;-54
2022/07/27 11:21:31;;;;;;;2.65;1.65;;;;;;;28.57;40.15;96470.75;5063098;28;20207;-54
2022/07/27 11:24:01;;;;;;;1.67;1.58;;;;;;;28.56;39.43;96463.66;5068702;28;20207;-55
2022/07/27 11:26:30;;;;;;;3.10;1.83;;;;;;;28.24;40.93;96468.28;5061267;28;20218;-54
2022/07/27 11:28:56;;;;;;;5.50;4.97;;;;;;;28.25;42.69;96463.69;5046708;28;20513;-55
2022/07/27 11:31:24;;;;;;;3.88;1.70;;;;;;;28.21;40.63;96463.38;5045641;28;20268;-55
2022/07/27 11:33:57;;;;;;;1.80;1.70;;;;;;;28.40;38.62;96464.63;5045287;28;20647;-55
2022/07/27 11:36:35;;;;;;;2.58;1.80;;;;;;;28.31;38.64;96460.72;5045198;28;20192;-55
2022/07/27 11:39:02;;;;;;;2.83;1.48;;;;;;;28.25;39.60;96461.78;5046155;28;20260;-56